ウダーチヌイ の空港の天気 - METARとTAF

Polyarny ( UERP / PYJ ) - ロシア ウダーチヌイ
飛行場実況気象(Metar)
観測時間10/20 13:00 YAKT (10/20 04:00 UTC)
風向・風速北西 2m/s
視程10km以上
天気現象
全天の4割程度の雲 雲底高度 1220m
全天の8割程度の雲 雲底高度 3050m
気温-14℃
湿度92%
気圧1014hPa
METARUERP 200400Z 31002MPS 9999 SCT040 BKN100 M14/M15 Q1014 NOSIG RMK QFE717
過去の天気等 Google飛行場航空写真 Wunderground天気予報

過去48時間のMETAR

飛行場予報(TAF)
発表時間: 10/20 11:00 YAKT (10/20 02:00 UTC)
予報対象時間: 20日12時 YAKT ~ 21日12時 YAKT
風向・風速不定 1m/s
視程10km以上
全天の4割程度の雲 雲底高度 700m
全天の8割程度の雲 雲底高度 3050m
TAF UERP 200200Z 2003/2103 VRB01MPS 9999 SCT023 BKN100